| time (UTC) | temp F | wind direction | speed MPH | gust MPH | rain 1hr in | rain 24hr in | rain mn in | humidity % | barometer mb |
| 20260831181515 | 84 | 194 | 12.0 | 22.0 | 0.00 | 0.00 | 0.00 | 48 | 1011.7 |
| 20260831180015 | 84 | 194 | 13.0 | 28.0 | 0.00 | 0.00 | 0.00 | 48 | 1011.7 |
| 20260831174513 | 85 | 172 | 14.0 | 28.0 | 0.00 | 0.00 | 0.00 | 47 | 1011.3 |
| 20260831173012 | 85 | 192 | 15.0 | 27.0 | 0.00 | 0.00 | 0.00 | 47 | 1011.2 |
| 20260831171511 | 85 | 234 | 15.0 | 27.0 | 0.00 | 0.00 | 0.00 | 47 | 1011.2 |
| 20260831170012 | 85 | 201 | 15.0 | 26.0 | 0.00 | 0.00 | 0.00 | 46 | 1011.2 |
| 20260831164518 | 85 | 184 | 15.0 | 30.0 | 0.00 | 0.00 | 0.00 | 46 | 1011.4 |
| 20260831163008 | 85 | 190 | 15.0 | 28.0 | 0.00 | 0.00 | 0.00 | 46 | 1011.4 |
| 20260831161506 | 85 | 184 | 18.0 | 30.0 | 0.00 | 0.00 | 0.00 | 47 | 1011.7 |
| 20260831160006 | 85 | 203 | 15.0 | 24.0 | 0.00 | 0.00 | 0.00 | 47 | 1011.7 |
| 20260831154506 | 85 | 176 | 15.0 | 30.0 | 0.00 | 0.00 | 0.00 | 47 | 1011.6 |
| 20260831153006 | 86 | 198 | 11.0 | 25.0 | 0.00 | 0.00 | 0.00 | 46 | 1011.6 |
| 20260831151503 | 86 | 172 | 14.0 | 24.0 | 0.00 | 0.00 | 0.00 | 47 | 1011.8 |
| 20260831150002 | 86 | 228 | 15.0 | 30.0 | 0.00 | 0.00 | 0.00 | 46 | 1011.9 |
| 20260831144605 | 87 | 221 | 13.0 | 29.0 | 0.00 | 0.00 | 0.00 | 45 | 1011.9 |
| 20260831144501 | 87 | 213 | 13.0 | 29.0 | 0.00 | 0.00 | 0.00 | 45 | 1011.9 |
| 20260831143059 | 87 | 214 | 12.0 | 25.0 | 0.00 | 0.00 | 0.00 | 44 | 1012.0 |
| 20260831141559 | 88 | 188 | 10.0 | 24.0 | 0.00 | 0.00 | 0.00 | 43 | 1012.0 |
| 20260831140056 | 88 | 219 | 11.0 | 28.0 | 0.00 | 0.00 | 0.00 | 42 | 1012.1 |
| 20260831134600 | 88 | 209 | 13.0 | 23.0 | 0.00 | 0.00 | 0.00 | 43 | 1012.1 |
| 20260831133053 | 88 | 188 | 11.0 | 22.0 | 0.00 | 0.00 | 0.00 | 43 | 1012.4 |
| 20260831131554 | 88 | 189 | 14.0 | 23.0 | 0.00 | 0.00 | 0.00 | 41 | 1012.5 |
| 20260831130051 | 89 | 184 | 12.0 | 19.0 | 0.00 | 0.00 | 0.00 | 38 | 1012.7 |
| 20260831124551 | 89 | 204 | 8.0 | 14.0 | 0.00 | 0.00 | 0.00 | 37 | 1012.8 |
| 20260831123046 | 90 | 163 | 7.0 | 12.0 | 0.00 | 0.00 | 0.00 | 38 | 1013.0 |
| 20260831121545 | 90 | 152 | 7.0 | 14.0 | 0.00 | 0.00 | 0.00 | 38 | 1013.0 |
| 20260831120043 | 88 | 194 | 10.0 | 21.0 | 0.00 | 0.00 | 0.00 | 42 | 1013.2 |
| 20260831114539 | 87 | 261 | 1.0 | 6.0 | 0.00 | 0.00 | 0.00 | 46 | 1013.4 |
| 20260831113035 | 87 | 221 | 2.0 | 5.0 | 0.00 | 0.00 | 0.00 | 46 | 1013.6 |
| 20260831111532 | 87 | 285 | 3.0 | 4.0 | 0.00 | 0.00 | 0.00 | 45 | 1013.8 |
| 20260831110035 | 85 | 67 | 1.0 | 4.0 | 0.00 | 0.00 | 0.00 | 47 | 1014.1 |
| 20260831104532 | 84 | 346 | 2.0 | 4.0 | 0.00 | 0.00 | 0.00 | 49 | 1014.3 |
| 20260831103021 | 83 | 355 | 2.0 | 5.0 | 0.00 | 0.00 | 0.00 | 51 | 1014.5 |
| 20260831101524 | 82 | 97 | 2.0 | 6.0 | 0.00 | 0.00 | 0.00 | 54 | 1014.7 |
| 20260831100017 | 81 | 322 | 2.0 | 5.0 | 0.00 | 0.00 | 0.00 | 56 | 1015.0 |
| 20260831094510 | 80 | 315 | 2.0 | 4.0 | 0.00 | 0.00 | 0.00 | 57 | 1015.2 |
| 20260831093006 | 79 | 300 | 1.0 | 5.0 | 0.00 | 0.00 | 0.00 | 58 | 1015.4 |
| 20260831091507 | 78 | 296 | 2.0 | 5.0 | 0.00 | 0.00 | 0.00 | 60 | 1015.5 |
| 20260831090002 | 77 | 299 | 3.0 | 7.0 | 0.00 | 0.00 | 0.00 | 60 | 1015.8 |
| 20260831084608 | 77 | 322 | 2.0 | 4.0 | 0.00 | 0.00 | 0.00 | 62 | 1015.8 |
| 20260831083056 | 75 | 26 | 3.0 | 6.0 | 0.00 | 0.00 | 0.00 | 64 | 1016.0 |
| 20260831081601 | 74 | 360 | 3.0 | 6.0 | 0.00 | 0.00 | 0.00 | 65 | 1016.1 |
| 20260831080117 | 74 | 336 | 3.0 | 6.0 | 0.00 | 0.00 | 0.00 | 68 | 1016.0 |
| 20260831074552 | 73 | 346 | 3.0 | 6.0 | 0.00 | 0.00 | 0.00 | 69 | 1016.1 |
| 20260831073111 | 72 | 326 | 3.0 | 8.0 | 0.00 | 0.00 | 0.00 | 70 | 1016.1 |
| 20260831071554 | 72 | 329 | 3.0 | 5.0 | 0.00 | 0.00 | 0.00 | 72 | 1016.1 |
| 20260831070049 | 71 | 317 | 2.0 | 4.0 | 0.00 | 0.00 | 0.00 | 73 | 1016.1 |
| 20260831064548 | 70 | 311 | 1.0 | 3.0 | 0.00 | 0.00 | 0.00 | 75 | 1016.1 |
| 20260831063047 | 69 | 263 | 0.0 | 2.0 | 0.00 | 0.00 | 0.00 | 76 | 1016.0 |
| 20260831061547 | 68 | 260 | 0.0 | 1.0 | 0.00 | 0.00 | 0.00 | 78 | 1016.1 |
| 20260831060052 | 67 | 261 | 0.0 | 0.0 | 0.00 | 0.00 | 0.00 | 80 | 1016.1 |
| 20260831054550 | 65 | 261 | 0.0 | 2.0 | 0.00 | 0.00 | 0.00 | 81 | 1016.0 |
| 20260831053045 | 65 | 261 | 2.0 | 3.0 | 0.00 | 0.00 | 0.00 | 80 | 1016.0 |
| 20260831051543 | 65 | 261 | 0.0 | 2.0 | 0.00 | 0.00 | 0.00 | 81 | 1015.9 |
| 20260831050042 | 64 | 261 | 0.0 | 0.0 | 0.00 | 0.00 | 0.00 | 81 | 1015.8 |
| 20260831044553 | 64 | 261 | 0.0 | 3.0 | 0.00 | 0.00 | 0.00 | 81 | 1015.8 |
| 20260831043039 | 65 | 304 | 0.0 | 1.0 | 0.00 | 0.00 | 0.00 | 80 | 1015.7 |
| 20260831041548 | 65 | 304 | 0.0 | 2.0 | 0.00 | 0.00 | 0.00 | 80 | 1015.7 |
| 20260831040040 | 65 | 304 | 0.0 | 2.0 | 0.00 | 0.00 | 0.00 | 80 | 1015.6 |
| 20260831034540 | 65 | 304 | 0.0 | 1.0 | 0.00 | 0.00 | 0.00 | 80 | 1015.5 |
| 20260831033042 | 65 | 304 | 0.0 | 3.0 | 0.00 | 0.00 | 0.00 | 79 | 1015.6 |
| 20260831031535 | 66 | 298 | 1.0 | 2.0 | 0.00 | 0.00 | 0.00 | 79 | 1015.5 |
| 20260831030032 | 66 | 298 | 0.0 | 2.0 | 0.00 | 0.00 | 0.00 | 78 | 1015.5 |
| 20260831024532 | 66 | 298 | 0.0 | 0.0 | 0.00 | 0.00 | 0.00 | 79 | 1015.6 |
| 20260831023030 | 66 | 298 | 0.0 | 2.0 | 0.00 | 0.00 | 0.00 | 79 | 1015.6 |
| 20260831021542 | 67 | 259 | 1.0 | 3.0 | 0.00 | 0.00 | 0.00 | 77 | 1015.6 |
| 20260831020028 | 67 | 222 | 0.0 | 0.0 | 0.00 | 0.00 | 0.00 | 77 | 1015.5 |
| 20260831014526 | 67 | 222 | 0.0 | 0.0 | 0.00 | 0.00 | 0.00 | 76 | 1015.6 |
| 20260831013024 | 68 | 222 | 1.0 | 3.0 | 0.00 | 0.00 | 0.00 | 75 | 1015.5 |
| 20260831011537 | 69 | 200 | 0.0 | 3.0 | 0.00 | 0.00 | 0.00 | 74 | 1015.6 |
| 20260831010020 | 70 | 209 | 0.0 | 4.0 | 0.00 | 0.00 | 0.00 | 70 | 1015.5 |
| 20260831004515 | 71 | 209 | 0.0 | 2.0 | 0.00 | 0.00 | 0.00 | 69 | 1015.5 |
| 20260831003017 | 71 | 209 | 2.0 | 5.0 | 0.00 | 0.00 | 0.00 | 68 | 1015.5 |
| 20260831001525 | 72 | 194 | 2.0 | 4.0 | 0.00 | 0.00 | 0.00 | 65 | 1015.6 |
| 20260831000015 | 72 | 196 | 2.0 | 4.0 | 0.00 | 0.00 | 0.00 | 66 | 1015.7 |
| 20260830234519 | 71 | 251 | 0.0 | 3.0 | 0.00 | 0.00 | 0.00 | 69 | 1015.6 |
| 20260830233013 | 71 | 253 | 0.0 | 0.0 | 0.00 | 0.00 | 0.00 | 71 | 1015.6 |
| 20260830231512 | 70 | 296 | 0.0 | 3.0 | 0.00 | 0.00 | 0.00 | 71 | 1015.7 |
| 20260830230008 | 72 | 294 | 1.0 | 4.0 | 0.00 | 0.00 | 0.00 | 69 | 1015.7 |
| 20260830224505 | 72 | 236 | 0.0 | 4.0 | 0.00 | 0.00 | 0.00 | 68 | 1015.7 |
| 20260830223006 | 73 | 237 | 2.0 | 3.0 | 0.00 | 0.00 | 0.00 | 67 | 1015.6 |
| 20260830221600 | 73 | 247 | 2.0 | 3.0 | 0.00 | 0.00 | 0.00 | 66 | 1015.5 |
| 20260830220056 | 74 | 248 | 0.0 | 3.0 | 0.00 | 0.00 | 0.00 | 63 | 1015.4 |
| 20260830214557 | 75 | 115 | 0.0 | 4.0 | 0.00 | 0.00 | 0.00 | 62 | 1015.4 |
| 20260830213054 | 75 | 139 | 0.0 | 3.0 | 0.00 | 0.00 | 0.00 | 60 | 1015.3 |
| 20260830211555 | 77 | 209 | 3.0 | 4.0 | 0.00 | 0.00 | 0.00 | 59 | 1015.2 |
| 20260830210053 | 78 | 112 | 2.0 | 7.0 | 0.00 | 0.00 | 0.00 | 55 | 1015.0 |
| 20260830204553 | 78 | 98 | 5.0 | 9.0 | 0.00 | 0.00 | 0.00 | 55 | 1014.9 |
| 20260830203053 | 78 | 126 | 3.0 | 8.0 | 0.00 | 0.00 | 0.00 | 54 | 1014.7 |
| 20260830201552 | 79 | 81 | 4.0 | 8.0 | 0.00 | 0.00 | 0.00 | 53 | 1014.6 |
| 20260830200051 | 79 | 127 | 3.0 | 7.0 | 0.00 | 0.00 | 0.00 | 52 | 1014.4 |
| 20260830194602 | 80 | 207 | 6.0 | 16.0 | 0.00 | 0.00 | 0.00 | 51 | 1014.4 |
| 20260830193050 | 81 | 183 | 6.0 | 14.0 | 0.00 | 0.00 | 0.00 | 49 | 1014.3 |
| 20260830191549 | 82 | 251 | 4.0 | 17.0 | 0.00 | 0.00 | 0.00 | 48 | 1014.2 |
| 20260830190049 | 83 | 198 | 10.0 | 17.0 | 0.00 | 0.00 | 0.00 | 45 | 1014.1 |
| 20260830184547 | 83 | 192 | 11.0 | 21.0 | 0.00 | 0.00 | 0.00 | 45 | 1014.0 |
| 20260830183048 | 83 | 163 | 10.0 | 23.0 | 0.00 | 0.00 | 0.00 | 46 | 1013.6 |